Time;durP1;ratioP1;P1;durP2;ratioP2;P2;SDS_P1;SDS_P2;PMS_P1;PMS_P2;Temp;Humidity;BMP_temperature;BMP_pressure;BME280_temperature;BME280_humidity;BME280_pressure;Samples;Min_cycle;Max_cycle;Signal;HPM_P1;HPM_P2
2022/04/08 00:00:24;;;;;;;14.03;2.37;;;;;;;5.25;nan;99733.38;4970423;28;20055;-60
2022/04/08 00:02:50;;;;;;;12.03;2.00;;;;;;;5.24;nan;99734.22;4970213;28;20070;-59
2022/04/08 00:05:15;;;;;;;13.30;2.40;;;;;;;5.22;nan;99733.28;4969967;28;20376;-58
2022/04/08 00:07:41;;;;;;;12.10;2.37;;;;;;;5.23;nan;99739.28;4970667;28;20546;-60
2022/04/08 00:10:07;;;;;;;14.53;2.50;;;;;;;5.21;nan;99735.78;4970522;28;20041;-60
2022/04/08 00:12:33;;;;;;;13.17;2.03;;;;;;;5.22;nan;99747.81;4969960;28;20022;-58
2022/04/08 00:14:59;;;;;;;14.50;2.40;;;;;;;5.21;nan;99757.22;4970247;28;20031;-60
2022/04/08 00:17:24;;;;;;;11.67;2.60;;;;;;;5.21;nan;99756.34;4969867;28;20761;-60
2022/04/08 00:19:50;;;;;;;13.73;2.70;;;;;;;5.19;nan;99752.84;4969730;28;20069;-59
2022/04/08 00:22:18;;;;;;;9.00;2.33;;;;;;;5.20;nan;99770.88;4969938;28;20066;-60
2022/04/08 00:24:43;;;;;;;11.60;2.00;;;;;;;5.20;nan;99770.03;4970130;28;20431;-60
2022/04/08 00:27:08;;;;;;;11.13;3.03;;;;;;;5.20;nan;99775.16;4970060;28;20031;-59
2022/04/08 00:29:34;;;;;;;10.63;2.60;;;;;;;5.21;nan;99782.03;4970537;28;20360;-60
2022/04/08 00:31:59;;;;;;;12.30;2.37;;;;;;;5.23;nan;99781.28;4969901;28;20029;-60
2022/04/08 00:34:26;;;;;;;7.80;2.00;;;;;;;5.21;nan;99788.06;4970108;28;20601;-59
2022/04/08 00:36:53;;;;;;;10.40;1.90;;;;;;;5.21;nan;99782.91;4969416;28;20054;-60
2022/04/08 00:39:18;;;;;;;13.03;3.00;;;;;;;5.21;nan;99785.47;4970024;28;20054;-60
2022/04/08 00:41:44;;;;;;;9.13;2.00;;;;;;;5.19;nan;99789.69;4969985;28;20058;-60
2022/04/08 00:44:10;;;;;;;12.30;2.30;;;;;;;5.19;nan;99789.69;4968991;28;20070;-59
2022/04/08 00:46:37;;;;;;;15.00;2.77;;;;;;;5.16;nan;99794.72;4969830;28;20122;-59
2022/04/08 00:49:03;;;;;;;10.90;1.90;;;;;;;5.16;nan;99793.00;4969643;28;20031;-60
2022/04/08 00:51:28;;;;;;;7.30;1.90;;;;;;;5.14;nan;99796.34;4969003;28;20101;-59
2022/04/08 00:53:54;;;;;;;10.33;2.00;;;;;;;5.13;nan;99808.31;4968112;28;20026;-60
2022/04/08 00:56:21;;;;;;;11.47;2.10;;;;;;;5.12;nan;99816.84;4969859;28;20455;-60
2022/04/08 00:58:47;;;;;;;9.33;2.37;;;;;;;5.12;nan;99821.09;4969733;28;20041;-58
2022/04/08 01:01:13;;;;;;;12.03;2.33;;;;;;;5.12;nan;99818.53;4968647;28;20387;-59
2022/04/08 01:03:38;;;;;;;13.10;2.30;;;;;;;5.09;nan;99821.84;4969303;28;20172;-59
2022/04/08 01:06:03;;;;;;;12.27;2.50;;;;;;;5.07;nan;99820.94;4969285;28;20041;-60
2022/04/08 01:08:29;;;;;;;12.37;2.67;;;;;;;5.07;nan;99820.94;4969529;28;20030;-60
2022/04/08 01:10:55;;;;;;;11.77;2.30;;;;;;;5.07;nan;99830.31;4968989;28;20372;-60
2022/04/08 01:13:21;;;;;;;9.17;2.73;;;;;;;5.07;nan;99835.47;4967913;28;20023;-59
2022/04/08 01:15:46;;;;;;;12.93;2.27;;;;;;;5.07;nan;99840.59;4969943;28;20046;-58
2022/04/08 01:18:12;;;;;;;12.47;2.30;;;;;;;5.08;nan;99850.03;4969087;28;20423;-58
2022/04/08 01:20:37;;;;;;;13.30;2.87;;;;;;;5.08;nan;99842.31;4969359;28;20435;-59
2022/04/08 01:23:04;;;;;;;11.80;2.57;;;;;;;5.07;nan;99845.72;4968630;28;20031;-58
2022/04/08 01:25:29;;;;;;;11.20;2.30;;;;;;;5.05;nan;99848.25;4969442;28;20085;-56
2022/04/08 01:27:56;;;;;;;12.93;2.83;;;;;;;5.02;nan;99848.97;4969210;28;20399;-58
2022/04/08 01:30:21;;;;;;;9.97;2.10;;;;;;;5.00;nan;99840.34;4969150;28;20647;-58
2022/04/08 01:32:46;;;;;;;13.13;2.77;;;;;;;5.00;nan;99845.47;4969138;28;20019;-58
2022/04/08 01:35:12;;;;;;;11.83;2.93;;;;;;;4.97;nan;99850.50;4969100;28;20483;-58
2022/04/08 01:37:37;;;;;;;14.67;2.30;;;;;;;4.95;nan;99857.25;4969585;28;20031;-58
2022/04/08 01:40:03;;;;;;;14.93;2.83;;;;;;;4.91;nan;99861.41;4969073;28;20375;-57
2022/04/08 01:42:28;;;;;;;9.17;2.03;;;;;;;4.89;nan;99867.31;4968878;28;20037;-58
2022/04/08 01:44:54;;;;;;;12.20;3.13;;;;;;;4.87;nan;99867.25;4969471;28;20019;-58
2022/04/08 01:47:20;;;;;;;9.20;2.00;;;;;;;4.87;nan;99868.94;4968338;28;20027;-58
2022/04/08 01:49:46;;;;;;;9.23;2.47;;;;;;;4.85;nan;99865.44;4968844;28;20030;-58
2022/04/08 01:52:11;;;;;;;14.23;2.37;;;;;;;4.82;nan;99865.31;4969077;28;20034;-58
2022/04/08 01:54:37;;;;;;;13.20;2.17;;;;;;;4.78;nan;99870.34;4968976;28;20162;-58
2022/04/08 01:57:02;;;;;;;7.50;1.90;;;;;;;4.76;nan;99876.19;4968213;28;20113;-59
2022/04/08 01:59:27;;;;;;;11.83;2.20;;;;;;;4.72;nan;99875.19;4969583;28;20028;-58
2022/04/08 02:01:53;;;;;;;11.13;2.20;;;;;;;4.66;nan;99873.25;4970543;28;20050;-59
2022/04/08 02:04:18;;;;;;;9.60;1.90;;;;;;;4.65;nan;99878.34;4972529;28;20360;-60
2022/04/08 02:06:43;;;;;;;6.60;2.10;;;;;;;4.63;nan;99883.41;4972145;28;20064;-60
2022/04/08 02:09:10;;;;;;;9.07;2.20;;;;;;;4.63;nan;99885.09;4971945;28;20034;-59
2022/04/08 02:11:36;;;;;;;14.40;2.43;;;;;;;4.60;nan;99885.84;4972653;28;20090;-59
2022/04/08 02:14:02;;;;;;;13.17;3.33;;;;;;;4.57;nan;99886.59;4972950;28;20273;-59
2022/04/08 02:16:27;;;;;;;11.87;2.23;;;;;;;4.55;nan;99885.66;4972816;28;20026;-57
2022/04/08 02:18:53;;;;;;;11.10;2.50;;;;;;;4.53;nan;99894.97;4972005;28;20055;-59
2022/04/08 02:21:19;;;;;;;8.77;2.57;;;;;;;4.49;nan;99890.53;4972294;28;20073;-59
2022/04/08 02:23:50;;;;;;;11.67;2.40;;;;;;;4.49;nan;99897.34;4972324;28;20019;-58
2022/04/08 02:26:16;;;;;;;;;;;;;;;4.48;nan;99899.03;4972826;28;20033;-59
2022/04/08 02:28:43;;;;;;;13.33;2.00;;;;;;;4.47;nan;99898.97;4972184;28;20008;-59
2022/04/08 02:31:08;;;;;;;11.93;2.13;;;;;;;4.46;nan;99898.13;4971710;28;20031;-58
2022/04/08 02:33:33;;;;;;;12.60;2.10;;;;;;;4.48;nan;99911.00;4972032;28;20033;-59
2022/04/08 02:35:59;;;;;;;9.87;2.30;;;;;;;4.48;nan;99909.28;4971315;28;20027;-58
2022/04/08 02:38:24;;;;;;;10.47;2.50;;;;;;;4.48;nan;99916.16;4972288;28;20146;-59
2022/04/08 02:40:49;;;;;;;12.60;2.20;;;;;;;4.47;nan;99910.13;4972020;28;20022;-58
2022/04/08 02:43:14;;;;;;;9.40;2.17;;;;;;;4.47;nan;99897.28;4970776;28;20038;-58
2022/04/08 02:45:40;;;;;;;14.03;3.07;;;;;;;4.44;nan;99899.75;4952549;28;20050;-58
2022/04/08 02:48:05;;;;;;;8.87;2.43;;;;;;;4.41;nan;99904.72;4952293;28;20399;-59
2022/04/08 02:50:30;;;;;;;9.13;2.23;;;;;;;4.39;nan;99908.94;4951758;28;20057;-59
2022/04/08 02:52:56;;;;;;;14.97;2.93;;;;;;;4.37;nan;99913.13;4952193;28;20020;-59
2022/04/08 02:55:21;;;;;;;9.67;2.47;;;;;;;4.35;nan;99909.59;4952174;28;20160;-60
2022/04/08 02:57:47;;;;;;;10.30;2.50;;;;;;;4.32;nan;99916.34;4952018;28;20053;-59
2022/04/08 03:00:18;;;;;;;11.23;2.13;;;;;;;4.26;nan;99910.97;4952013;28;20575;-60
2022/04/08 03:02:44;;;;;;;11.03;2.60;;;;;;;4.22;nan;99914.22;4952481;28;20022;-60
2022/04/08 03:05:09;;;;;;;8.33;1.80;;;;;;;4.18;nan;99909.75;4951987;28;20039;-59
2022/04/08 03:07:35;;;;;;;12.63;2.30;;;;;;;4.12;nan;99917.19;4952440;28;20086;-55
2022/04/08 03:10:03;;;;;;;13.37;2.30;;;;;;;4.06;nan;99917.81;4951756;28;20037;-58
2022/04/08 03:12:28;;;;;;;8.70;1.93;;;;;;;4.00;nan;99920.97;4951372;28;20141;-59
2022/04/08 03:14:54;;;;;;;13.27;2.10;;;;;;;3.95;nan;99920.78;4951979;28;20031;-59
2022/04/08 03:17:19;;;;;;;13.97;1.90;;;;;;;3.91;nan;99920.56;4951751;28;20027;-58
2022/04/08 03:19:44;;;;;;;11.50;2.43;;;;;;;3.87;nan;99922.09;4951601;28;20107;-59
2022/04/08 03:22:09;;;;;;;16.13;2.77;;;;;;;3.82;nan;99918.47;4951798;28;20086;-58
2022/04/08 03:24:35;;;;;;;11.57;2.60;;;;;;;3.76;nan;99920.75;4951063;28;20027;-60
2022/04/08 03:27:00;;;;;;;9.20;2.17;;;;;;;3.72;nan;99922.31;4951603;28;20506;-57
2022/04/08 03:29:25;;;;;;;9.93;2.07;;;;;;;3.70;nan;99931.59;4951631;28;20107;-59
2022/04/08 03:31:51;;;;;;;12.37;3.00;;;;;;;3.62;nan;99931.25;4951902;28;20027;-60
2022/04/08 03:34:16;;;;;;;10.63;2.43;;;;;;;3.56;nan;99936.09;4951634;28;20035;-59
2022/04/08 03:36:41;;;;;;;12.03;2.30;;;;;;;3.45;nan;99917.69;4951347;28;20535;-59
2022/04/08 03:39:08;;;;;;;8.17;1.60;;;;;;;3.47;nan;99949.38;4950991;28;20070;-59
2022/04/08 03:41:34;;;;;;;10.27;2.20;;;;;;;3.44;nan;99947.53;4951560;28;20027;-60
2022/04/08 03:43:59;;;;;;;11.23;2.83;;;;;;;3.42;nan;99953.41;4951746;28;20051;-58
2022/04/08 03:46:24;;;;;;;9.23;2.50;;;;;;;3.39;nan;99945.56;4951323;28;20042;-59
2022/04/08 03:48:50;;;;;;;10.27;2.40;;;;;;;3.37;nan;99945.47;4951492;28;20027;-60
2022/04/08 03:51:15;;;;;;;8.43;2.20;;;;;;;3.34;nan;99956.47;4950943;28;20023;-60
2022/04/08 03:53:40;;;;;;;9.33;2.67;;;;;;;3.34;nan;99955.59;4951764;28;20400;-59
2022/04/08 03:56:05;;;;;;;8.10;2.63;;;;;;;3.32;nan;99955.53;4951903;28;20063;-59
2022/04/08 03:58:31;;;;;;;14.57;4.40;;;;;;;3.23;nan;99955.09;4951682;28;20031;-59
2022/04/08 04:00:56;;;;;;;10.93;2.80;;;;;;;3.22;nan;99961.03;4951070;28;20509;-58
2022/04/08 04:03:22;;;;;;;11.93;2.27;;;;;;;3.21;nan;99962.69;4951473;28;20035;-60
2022/04/08 04:05:47;;;;;;;9.90;2.50;;;;;;;3.18;nan;99959.13;4966615;28;20023;-60
2022/04/08 04:08:18;;;;;;;7.83;2.70;;;;;;;3.19;nan;99956.63;4951572;28;20035;-60
2022/04/08 04:10:44;;;;;;;10.13;2.70;;;;;;;3.21;nan;99959.25;4950054;28;20106;-59
2022/04/08 04:13:10;;;;;;;10.17;2.27;;;;;;;3.18;nan;99954.88;4951334;28;20487;-59
2022/04/08 04:15:35;;;;;;;9.67;2.37;;;;;;;3.17;nan;99952.22;4951253;28;20027;-59
2022/04/08 04:18:00;;;;;;;7.50;2.70;;;;;;;3.11;nan;99950.25;4951510;28;20466;-60
2022/04/08 04:20:25;;;;;;;8.70;2.43;;;;;;;3.05;nan;99950.84;4951276;28;20105;-60
2022/04/08 04:22:53;;;;;;;9.17;2.97;;;;;;;3.04;nan;99956.75;4950718;28;20047;-59
2022/04/08 04:25:18;;;;;;;9.40;2.90;;;;;;;3.03;nan;99949.00;4950833;28;20070;-60
2022/04/08 04:27:44;;;;;;;7.47;2.57;;;;;;;3.01;nan;99941.25;4951028;28;20497;-60
2022/04/08 04:30:10;;;;;;;5.90;2.50;;;;;;;3.01;nan;99941.25;4951284;28;20039;-60
2022/04/08 04:32:35;;;;;;;12.47;3.10;;;;;;;3.00;nan;99949.75;4951551;28;20313;-60
2022/04/08 04:35:06;;;;;;;11.40;3.03;;;;;;;2.97;nan;99947.91;4951281;28;20162;-59
2022/04/08 04:37:35;;;;;;;9.73;3.05;;;;;;;2.93;nan;99948.53;4950830;28;20046;-57
2022/04/08 04:40:01;;;;;;;10.00;3.57;;;;;;;2.91;nan;99950.16;4950683;28;20031;-60
2022/04/08 04:42:27;;;;;;;10.60;3.73;;;;;;;2.91;nan;99956.97;4950762;28;20062;-59
2022/04/08 04:44:53;;;;;;;12.07;3.93;;;;;;;2.90;nan;99953.53;4950211;28;20038;-59
2022/04/08 04:47:18;;;;;;;7.47;3.97;;;;;;;2.90;nan;99957.78;4949786;28;20026;-58
2022/04/08 04:49:43;;;;;;;12.33;4.20;;;;;;;2.88;nan;99953.44;4949247;28;20082;-58
2022/04/08 04:52:09;;;;;;;9.47;3.70;;;;;;;2.90;nan;99957.78;4949406;28;20023;-58
2022/04/08 04:54:34;;;;;;;10.80;3.87;;;;;;;2.93;nan;99957.94;4948569;28;20031;-59
2022/04/08 04:56:59;;;;;;;9.53;3.83;;;;;;;2.93;nan;99968.16;4950041;28;20023;-59
2022/04/08 04:59:25;;;;;;;8.27;4.30;;;;;;;2.92;nan;99957.03;4949578;28;20039;-59
2022/04/08 05:01:50;;;;;;;7.80;4.60;;;;;;;2.93;nan;99963.03;4950680;28;20047;-59
2022/04/08 05:04:15;;;;;;;7.37;4.07;;;;;;;2.90;nan;99952.66;4950788;28;20031;-60
2022/04/08 05:06:40;;;;;;;10.47;5.30;;;;;;;2.90;nan;99953.53;4950163;28;20559;-58
2022/04/08 05:09:06;;;;;;;10.40;5.80;;;;;;;2.92;nan;99956.16;4950864;28;20090;-59
2022/04/08 05:11:32;;;;;;;13.20;6.13;;;;;;;2.92;nan;99951.91;4951401;28;20046;-58
2022/04/08 05:13:59;;;;;;;7.13;5.53;;;;;;;2.90;nan;99952.66;4950831;28;20023;-59
2022/04/08 05:16:24;;;;;;;14.40;5.97;;;;;;;2.90;nan;99950.09;4950151;28;20031;-60
2022/04/08 05:18:49;;;;;;;11.03;5.13;;;;;;;2.92;nan;99956.16;4950992;28;20388;-59
2022/04/08 05:21:15;;;;;;;12.10;6.07;;;;;;;2.95;nan;99951.22;4950815;28;20400;-59
2022/04/08 05:23:40;;;;;;;14.77;5.87;;;;;;;2.97;nan;99947.91;4950569;28;20039;-60
2022/04/08 05:26:05;;;;;;;13.03;5.87;;;;;;;3.00;nan;99959.97;4950794;28;20023;-60
2022/04/08 05:28:30;;;;;;;9.43;5.10;;;;;;;3.02;nan;99949.81;4948583;28;20035;-60
2022/04/08 05:30:56;;;;;;;8.80;5.40;;;;;;;3.04;nan;99949.06;4950621;28;20443;-60
2022/04/08 05:33:21;;;;;;;7.53;5.00;;;;;;;3.07;nan;99951.78;4950453;28;20039;-60
2022/04/08 05:35:46;;;;;;;10.83;6.03;;;;;;;3.08;nan;99944.97;4953621;28;20035;-58
2022/04/08 05:38:11;;;;;;;7.47;4.73;;;;;;;3.08;nan;99950.09;4954799;28;20042;-61
2022/04/08 05:40:37;;;;;;;12.87;5.73;;;;;;;3.11;nan;99946.00;4953755;28;20038;-60
2022/04/08 05:43:02;;;;;;;16.03;6.77;;;;;;;3.14;nan;99941.84;4954006;28;20058;-59
2022/04/08 05:45:27;;;;;;;11.20;7.17;;;;;;;3.17;nan;99939.41;4954556;28;20066;-60
2022/04/08 05:47:55;;;;;;;12.37;7.30;;;;;;;3.21;nan;99936.19;4953988;28;20419;-60
2022/04/08 05:50:21;;;;;;;12.43;8.77;;;;;;;3.21;nan;99937.09;4954296;28;20027;-60
2022/04/08 05:52:48;;;;;;;11.20;8.63;;;;;;;3.25;nan;99935.56;4953341;28;20027;-60
2022/04/08 05:55:13;;;;;;;12.63;9.57;;;;;;;3.29;nan;99932.31;4953066;28;20034;-59
2022/04/08 05:57:40;;;;;;;14.00;9.67;;;;;;;3.30;nan;99928.06;4953359;28;20411;-59
2022/04/08 06:00:09;;;;;;;12.97;9.93;;;;;;;3.32;nan;99924.78;4952975;28;20027;-60
2022/04/08 06:02:34;;;;;;;14.30;10.13;;;;;;;3.38;nan;99928.44;4952425;28;20042;-60
2022/04/08 06:04:59;;;;;;;13.33;8.53;;;;;;;3.43;nan;99924.41;4953742;28;20031;-59
2022/04/08 06:07:25;;;;;;;13.17;9.90;;;;;;;3.49;nan;99919.56;4953589;28;20035;-58
2022/04/08 06:09:51;;;;;;;13.50;9.37;;;;;;;3.54;nan;99923.22;4954049;28;20379;-60
2022/04/08 06:12:16;;;;;;;13.23;8.87;;;;;;;3.65;nan;99930.53;4953978;28;20555;-57
2022/04/08 06:14:42;;;;;;;12.67;8.37;;;;;;;3.72;nan;99925.72;4953161;28;20027;-59
2022/04/08 06:17:07;;;;;;;8.80;7.90;;;;;;;3.88;nan;99923.00;4953720;28;20459;-58
2022/04/08 06:19:32;;;;;;;12.17;8.30;;;;;;;4.03;nan;99917.69;4953308;28;20027;-59
2022/04/08 06:21:57;;;;;;;12.07;8.30;;;;;;;4.16;nan;99925.06;4953479;29;20027;-59
2022/04/08 06:24:23;;;;;;;12.63;8.60;;;;;;;4.29;nan;99921.38;4952923;28;20039;-59
2022/04/08 06:26:48;;;;;;;8.47;7.67;;;;;;;4.37;nan;99928.50;4954020;28;20031;-59
2022/04/08 06:29:13;;;;;;;9.63;7.60;;;;;;;4.40;nan;99933.75;4961950;28;20031;-58
2022/04/08 06:31:39;;;;;;;12.00;7.40;;;;;;;4.51;nan;99922.28;4952813;28;20247;-59
2022/04/08 06:34:04;;;;;;;10.00;7.37;;;;;;;4.60;nan;99926.91;4952240;28;20027;-60
2022/04/08 06:36:29;;;;;;;8.77;6.70;;;;;;;4.42;nan;99927.00;4952411;28;20566;-59
2022/04/08 06:38:55;;;;;;;8.53;6.40;;;;;;;4.47;nan;99920.38;4950052;28;20027;-59
2022/04/08 06:41:21;;;;;;;10.53;6.83;;;;;;;4.48;nan;99919.56;4952181;28;20483;-59
2022/04/08 06:43:46;;;;;;;8.53;6.00;;;;;;;4.53;nan;99912.06;4964224;28;20093;-60
2022/04/08 06:46:12;;;;;;;8.17;7.07;;;;;;;4.72;nan;99916.28;4970033;28;20065;-59
2022/04/08 06:48:37;;;;;;;9.10;6.40;;;;;;;4.89;nan;99910.97;4961931;28;20038;-59
2022/04/08 06:51:04;;;;;;;8.38;5.85;;;;;;;5.09;nan;99905.75;4952175;28;20063;-59
2022/04/08 06:53:33;;;;;;;8.43;6.23;;;;;;;5.12;nan;99908.41;4951923;28;20114;-59
2022/04/08 06:55:58;;;;;;;7.17;5.40;;;;;;;5.14;nan;99909.38;4957318;28;20109;-58
2022/04/08 06:58:26;;;;;;;10.10;6.07;;;;;;;5.14;nan;99905.09;4970770;28;20105;-60
2022/04/08 07:00:52;;;;;;;10.07;6.03;;;;;;;5.14;nan;99909.38;4970768;28;20051;-59
2022/04/08 07:03:17;;;;;;;10.33;5.83;;;;;;;5.15;nan;99908.53;4963722;28;20085;-60
2022/04/08 07:05:42;;;;;;;7.77;5.30;;;;;;;5.05;nan;99897.03;4955803;28;20039;-60
2022/04/08 07:08:08;;;;;;;7.57;6.00;;;;;;;5.05;nan;99903.03;4959525;28;20034;-59
2022/04/08 07:10:33;;;;;;;9.43;5.40;;;;;;;5.04;nan;99903.84;4957134;28;20526;-59
2022/04/08 07:12:59;;;;;;;9.97;5.43;;;;;;;5.08;nan;99914.25;4970051;28;20089;-57
2022/04/08 07:15:25;;;;;;;9.50;5.13;;;;;;;5.10;nan;99910.03;4965191;28;20464;-57
2022/04/08 07:17:50;;;;;;;8.27;4.97;;;;;;;5.16;nan;99910.31;4950598;28;20035;-58
2022/04/08 07:20:16;;;;;;;7.17;5.50;;;;;;;5.18;nan;99908.66;4951136;28;20175;-58
2022/04/08 07:22:42;;;;;;;10.70;6.40;;;;;;;5.23;nan;99899.44;4951934;28;20093;-58
2022/04/08 07:25:08;;;;;;;8.57;6.03;;;;;;;5.24;nan;99893.47;4952277;28;20051;-60
2022/04/08 07:27:45;;;;;;;8.87;5.43;;;;;;;5.25;nan;99887.50;4952109;28;20031;-58
2022/04/08 07:30:11;;;;;;;6.83;4.73;;;;;;;5.21;nan;99885.66;4968009;28;20035;-59
2022/04/08 07:32:36;;;;;;;6.10;4.17;;;;;;;5.15;nan;99891.44;4971491;28;20029;-59
2022/04/08 07:35:02;;;;;;;7.20;4.40;;;;;;;5.16;nan;99889.75;4980822;28;20031;-58
2022/04/08 07:37:28;;;;;;;8.30;4.63;;;;;;;5.16;nan;99887.19;4983555;28;20026;-58
2022/04/08 07:39:54;;;;;;;8.27;4.28;;;;;;;5.21;nan;99884.78;4990467;28;20034;-59
2022/04/08 07:42:19;;;;;;;7.60;4.43;;;;;;;5.26;nan;99884.16;4984599;28;20089;-58
2022/04/08 07:44:44;;;;;;;9.00;3.90;;;;;;;5.27;nan;99885.03;4969303;28;20026;-59
2022/04/08 07:47:10;;;;;;;4.33;3.30;;;;;;;5.33;nan;99886.94;4979858;28;20027;-58
2022/04/08 07:49:36;;;;;;;6.03;3.47;;;;;;;5.42;nan;99889.88;4984963;28;20036;-58
2022/04/08 07:52:01;;;;;;;5.53;4.00;;;;;;;5.53;nan;99891.16;4986072;28;20030;-59
2022/04/08 07:54:26;;;;;;;7.23;3.73;;;;;;;5.58;nan;99885.28;4990186;28;20038;-59
2022/04/08 07:56:52;;;;;;;5.18;3.33;;;;;;;5.64;nan;99875.25;4988872;28;20084;-58
2022/04/08 07:59:17;;;;;;;6.13;3.50;;;;;;;5.65;nan;99876.97;4966121;28;20019;-59
2022/04/08 08:01:43;;;;;;;6.23;2.90;;;;;;;5.67;nan;99877.91;4968567;28;20070;-59
2022/04/08 08:04:08;;;;;;;4.33;3.20;;;;;;;5.73;nan;99877.28;4982394;28;20467;-59
2022/04/08 08:06:33;;;;;;;7.10;3.47;;;;;;;5.73;nan;99873.03;4989841;28;20033;-59
2022/04/08 08:08:58;;;;;;;8.50;3.30;;;;;;;5.73;nan;99873.03;4981207;28;20369;-59
2022/04/08 08:11:24;;;;;;;5.07;2.80;;;;;;;5.69;nan;99873.72;4990051;28;20042;-59
2022/04/08 08:13:49;;;;;;;4.37;3.00;;;;;;;5.71;nan;99879.78;4980407;28;20035;-59
2022/04/08 08:16:14;;;;;;;3.95;3.17;;;;;;;5.74;nan;99877.31;4971943;28;20097;-59
2022/04/08 08:18:40;;;;;;;6.55;3.55;;;;;;;5.79;nan;99876.63;4964601;28;20031;-58
2022/04/08 08:21:05;;;;;;;6.90;3.13;;;;;;;5.85;nan;99879.41;4977360;28;20061;-59
2022/04/08 08:23:30;;;;;;;7.53;3.10;;;;;;;5.84;nan;99878.56;4989517;28;20033;-59
2022/04/08 08:25:56;;;;;;;7.75;3.30;;;;;;;5.90;nan;99883.00;4960858;28;20125;-59
2022/04/08 08:28:24;;;;;;;5.18;3.17;;;;;;;5.94;nan;99877.16;4978591;28;20160;-60
2022/04/08 08:30:50;;;;;;;6.70;2.53;;;;;;;5.95;nan;99871.22;4989163;28;20071;-57
2022/04/08 08:33:15;;;;;;;6.28;3.25;;;;;;;6.01;nan;99860.25;4973062;28;20030;-58
2022/04/08 08:35:40;;;;;;;5.68;3.47;;;;;;;6.03;nan;99863.75;4981846;28;20030;-59
2022/04/08 08:38:07;;;;;;;7.78;3.65;;;;;;;6.07;nan;99865.66;4977830;28;20128;-58
2022/04/08 08:40:33;;;;;;;4.85;2.95;;;;;;;6.15;nan;99857.31;4974173;28;20045;-58
2022/04/08 08:43:00;;;;;;;9.13;4.47;;;;;;;6.19;nan;99842.03;4973687;28;20049;-59
2022/04/08 08:45:32;;;;;;;6.18;3.03;;;;;;;6.20;nan;99845.50;4968623;28;20031;-59
2022/04/08 08:48:00;;;;;;;6.35;4.05;;;;;;;6.07;nan;99845.06;4987206;28;20386;-59
2022/04/08 08:50:25;;;;;;;6.38;2.75;;;;;;;6.13;nan;99834.13;4974110;28;20502;-59
2022/04/08 08:52:51;;;;;;;6.85;3.45;;;;;;;6.12;nan;99837.50;4978992;28;20065;-58
2022/04/08 08:55:16;;;;;;;6.20;3.00;;;;;;;6.15;nan;99827.34;4980051;28;20030;-59
2022/04/08 08:57:43;;;;;;;5.72;2.88;;;;;;;6.12;nan;99829.78;4988909;28;20143;-59
2022/04/08 09:00:15;;;;;;;6.93;3.03;;;;;;;6.11;nan;99825.47;4981379;28;20057;-58
2022/04/08 09:02:42;;;;;;;6.70;2.97;;;;;;;6.21;nan;99819.81;4986905;28;20479;-59
2022/04/08 09:05:14;;;;;;;6.40;2.88;;;;;;;6.22;nan;99818.97;4974487;28;20053;-59
2022/04/08 09:07:40;;;;;;;6.68;3.20;;;;;;;6.28;nan;99812.31;4988871;28;20041;-56
2022/04/08 09:10:07;;;;;;;6.00;2.70;;;;;;;6.39;nan;99816.09;4967697;28;20027;-59
2022/04/08 09:12:32;;;;;;;7.00;2.70;;;;;;;6.42;nan;99807.63;4972055;28;20041;-59
2022/04/08 09:14:59;;;;;;;8.27;3.33;;;;;;;6.42;nan;99810.19;4971950;28;20034;-59
2022/04/08 09:17:26;;;;;;;6.28;2.90;;;;;;;6.43;nan;99812.81;4973458;28;20053;-59
2022/04/08 09:19:53;;;;;;;5.32;2.63;;;;;;;6.43;nan;99815.38;4971471;28;20030;-59
2022/04/08 09:22:19;;;;;;;7.55;2.60;;;;;;;6.39;nan;99815.22;4971571;28;20026;-59
2022/04/08 09:24:44;;;;;;;6.70;2.88;;;;;;;6.34;nan;99808.22;4974405;28;20034;-57
2022/04/08 09:27:11;;;;;;;2.80;2.30;;;;;;;6.45;nan;99818.88;4978893;28;20038;-59
2022/04/08 09:29:37;;;;;;;5.32;2.97;;;;;;;6.47;nan;99812.09;4970310;28;20073;-59
2022/04/08 09:32:10;;;;;;;5.47;2.70;;;;;;;6.56;nan;99813.19;4966886;28;20031;-59
2022/04/08 09:34:37;;;;;;;8.13;2.80;;;;;;;6.62;nan;99813.38;4969602;28;20498;-59
2022/04/08 09:37:22;;;;;;;5.20;2.97;;;;;;;6.59;nan;99813.28;4959393;28;20045;-57
2022/04/08 09:39:58;;;;;;;4.30;2.70;;;;;;;6.59;nan;99808.13;4983782;28;20505;-59
2022/04/08 09:42:39;;;;;;;4.97;2.70;;;;;;;6.57;nan;99804.63;4962017;28;20541;-59
2022/04/08 09:45:05;;;;;;;6.93;2.78;;;;;;;6.61;nan;99798.78;4976214;28;20516;-59
2022/04/08 09:47:30;;;;;;;4.35;2.63;;;;;;;6.55;nan;99806.31;4986108;28;20037;-59
2022/04/08 09:49:55;;;;;;;4.95;2.95;;;;;;;6.50;nan;99801.00;4983754;28;20023;-59
2022/04/08 09:52:21;;;;;;;3.67;2.60;;;;;;;6.44;nan;99808.53;4988093;28;20094;-59
2022/04/08 09:54:47;;;;;;;5.40;2.90;;;;;;;6.44;nan;99808.53;4987546;28;20026;-59
2022/04/08 09:57:18;;;;;;;5.07;2.60;;;;;;;6.54;nan;99804.56;4982629;28;20505;-58
2022/04/08 09:59:50;;;;;;;3.72;2.47;;;;;;;6.60;nan;99800.47;4975953;28;20490;-60
2022/04/08 10:02:17;;;;;;;5.53;2.55;;;;;;;6.68;nan;99797.25;4981759;28;20404;-59
2022/04/08 10:04:43;;;;;;;4.97;2.58;;;;;;;6.71;nan;99802.53;4972649;28;20031;-59
2022/04/08 10:07:10;;;;;;;5.95;2.60;;;;;;;6.76;nan;99800.97;4972099;28;20031;-59
2022/04/08 10:09:52;;;;;;;5.68;3.00;;;;;;;6.70;nan;99806.78;4970145;28;20062;-59
2022/04/08 10:12:31;;;;;;;6.40;2.90;;;;;;;6.75;nan;99800.88;4971755;28;20022;-59
2022/04/08 10:15:10;;;;;;;7.18;2.95;;;;;;;6.79;nan;99800.16;4973098;28;20038;-59
2022/04/08 10:17:35;;;;;;;8.95;3.50;;;;;;;6.84;nan;99804.63;4979070;28;20441;-59
2022/04/08 10:20:17;;;;;;;7.00;2.88;;;;;;;6.73;nan;99801.72;4970381;28;20027;-59
2022/04/08 10:22:42;;;;;;;7.60;2.78;;;;;;;6.77;nan;99791.50;4963535;28;20031;-58
2022/04/08 10:25:16;;;;;;;8.85;2.83;;;;;;;6.74;nan;99797.47;4990769;28;20033;-58
2022/04/08 10:27:43;;;;;;;8.85;2.55;;;;;;;6.76;nan;99797.50;4975693;28;20030;-59
2022/04/08 10:30:21;;;;;;;7.30;2.92;;;;;;;6.75;nan;99788.91;4989990;28;20139;-59
2022/04/08 10:32:57;;;;;;;7.10;2.90;;;;;;;6.73;nan;99796.56;4977505;28;20536;-58
2022/04/08 10:35:23;;;;;;;6.32;2.50;;;;;;;6.72;nan;99792.28;4988752;28;20030;-59
2022/04/08 10:38:02;;;;;;;7.80;2.78;;;;;;;6.64;nan;99783.41;4990223;28;20124;-59
2022/04/08 10:40:30;;;;;;;4.95;2.20;;;;;;;6.63;nan;99784.25;4990475;28;20513;-58
2022/04/08 10:43:14;;;;;;;7.13;2.40;;;;;;;6.66;nan;99778.31;4990235;28;20030;-58
2022/04/08 10:45:39;;;;;;;9.15;2.55;;;;;;;6.65;nan;99777.44;4990698;28;20022;-58
2022/04/08 10:48:07;;;;;;;9.23;2.58;;;;;;;6.69;nan;99781.84;4988988;28;20403;-58
2022/04/08 10:50:33;;;;;;;7.30;2.35;;;;;;;6.62;nan;99781.63;4988692;28;20022;-58
2022/04/08 10:53:22;;;;;;;4.72;2.30;;;;;;;6.56;nan;99793.50;4987375;28;20033;-58
2022/04/08 10:55:49;;;;;;;6.85;2.00;;;;;;;6.55;nan;99786.56;4981657;28;20038;-58
2022/04/08 10:58:15;;;;;;;10.48;2.22;;;;;;;6.59;nan;99784.97;4988153;28;20022;-58
2022/04/08 11:00:41;;;;;;;6.00;2.28;;;;;;;6.64;nan;99783.41;4987741;28;20039;-58
2022/04/08 11:03:12;;;;;;;7.15;2.47;;;;;;;6.76;nan;99785.50;4987844;28;20027;-58
2022/04/08 11:05:39;;;;;;;6.80;2.72;;;;;;;6.85;nan;99784.91;4988118;28;20027;-59
2022/04/08 11:08:06;;;;;;;9.60;2.40;;;;;;;6.93;nan;99783.44;4987594;28;20027;-58
2022/04/08 11:10:31;;;;;;;6.85;2.33;;;;;;;6.93;nan;99769.66;4975723;28;20035;-58
2022/04/08 11:12:57;;;;;;;7.40;2.63;;;;;;;7.00;nan;99763.03;4990673;28;20114;-59
2022/04/08 11:15:24;;;;;;;7.60;3.58;;;;;;;7.00;nan;99758.72;4978199;28;20031;-59
2022/04/08 11:17:51;;;;;;;6.47;2.50;;;;;;;7.03;nan;99761.41;4970807;28;20058;-58
2022/04/08 11:20:19;;;;;;;7.50;2.60;;;;;;;7.04;nan;99758.00;4982441;28;20026;-58
2022/04/08 11:22:47;;;;;;;6.18;2.47;;;;;;;7.04;nan;99762.25;4964706;28;20026;-58
2022/04/08 11:25:23;;;;;;;6.22;2.38;;;;;;;7.09;nan;99758.13;4969322;28;20117;-59
2022/04/08 11:28:05;;;;;;;7.28;2.13;;;;;;;7.17;nan;99748.94;4970695;28;20430;-58
2022/04/08 11:30:31;;;;;;;;;;;;;;;7.21;nan;99747.31;4973839;28;20026;-59
2022/04/08 11:32:57;;;;;;;8.73;3.00;;;;;;;7.20;nan;99741.28;4971384;28;19909;-58
2022/04/08 11:35:27;;;;;;;6.88;2.17;;;;;;;7.28;nan;99738.03;4971210;28;20022;-59
2022/04/08 11:37:52;;;;;;;6.93;2.65;;;;;;;7.35;nan;99728.75;4971823;28;20397;-58
2022/04/08 11:40:18;;;;;;;4.47;2.33;;;;;;;7.39;nan;99717.72;4980527;28;20027;-58
2022/04/08 11:42:46;;;;;;;6.50;2.63;;;;;;;7.47;nan;99717.91;4986526;28;20102;-59
2022/04/08 11:45:14;;;;;;;6.70;2.50;;;;;;;7.50;nan;99707.69;4979068;28;20479;-57
2022/04/08 11:47:46;;;;;;;7.45;2.42;;;;;;;7.55;nan;99706.09;4987967;28;20034;-58
2022/04/08 11:50:12;;;;;;;;;;;;;;;7.60;nan;99708.78;4970647;28;20034;-58
2022/04/08 11:52:37;;;;;;;3.80;2.00;;;;;;;7.64;nan;99706.34;4974036;28;20132;-58